Terminal Aerodrome Forecast
Issued by NWS Raleigh/Durham, NC

Home | Current Version | Previous Version | Text Only | Print | Product List | Glossary On
Versions: 1 2 3 4 5 6 7 8 9 10 11 12 13 14 15 16 17 18 19 20 21 22 23 24 25 26
000
FTUS42 KRAH 301129
TAFRDU
TAF
KRDU 301129Z 3012/0112 21005KT P6SM SCT009 BKN016
      TEMPO 3012/3014 BKN008
     FM301700 21009KT P6SM SCT020
     FM301800 21009KT P6SM SCT045
     FM010100 18005KT P6SM FEW150
     FM010500 19008KT P6SM SCT020
     FM011100 20010G19KT P6SM BKN010=

USA.gov is the U.S. government's official web portal to all federal, state and local government web resources and services.